Montauk — 9HHE8 — position and weather

sailwx.info

Track history (hours):
 
Tides and Currents Weather Stations Pressure Air Temp Water Temp Dewpoint Dewpoint Depression Visibility Wind Speed Wind Dir Waves Ship Positions

Montauk

Last reported at 2017-Mar-29 06:33 UTC. Time now 2017-Mar-30 09:00 UTC.
Position S 04°57' E 011°14'.

Length 106 m; draft 6 m.

Type: Tanker. MMSI: 215978000.

Date/timePositionNaut miles runAvg speedWind from/ knotsBaromVisibWave heightAir tempDewpointWater temp
2017-Mar-29 06:33S 04°57' E 011°14'9 8.6
2017-Mar-29 05:32S 04°57' E 011°22'  
2017-Mar-26 03:32S 04°54' E 011°35'7 7.1
2017-Mar-26 02:33S 04°56' E 011°28'7 6.9
2017-Mar-26 01:33S 04°58' E 011°21'22 0.5
2017-Mar-24 04:33S 04°42' E 011°36'8 8.2
2017-Mar-24 03:33S 04°45' E 011°44'5 2.2
2017-Mar-24 01:31S 04°45' E 011°49'0 0.0
2017-Mar-23 21:31S 04°45' E 011°49'0 0.1
2017-Mar-23 20:22S 04°45' E 011°49'0 0.0
2017-Mar-23 19:31S 04°45' E 011°49'0 0.0
2017-Mar-23 18:28S 04°45' E 011°49'0 0.0
2017-Mar-23 17:31S 04°45' E 011°49'0 0.0
2017-Mar-23 16:25S 04°45' E 011°49'0 0.0
2017-Mar-23 14:25S 04°45' E 011°49'0 0.2
2017-Mar-23 13:33S 04°45' E 011°49'25 1.8
2017-Mar-22 23:29S 04°56' E 011°26'7 7.4
2017-Mar-22 22:33S 04°57' E 011°19'26 1.1
2017-Mar-21 23:34S 04°57' E 010°53'5 0.5
2017-Mar-21 13:26S 04°53' E 010°55'17 0.8
2017-Mar-20 15:04S 04°57' E 011°11'4 8.4
2017-Mar-20 14:33S 04°57' E 011°15'8 8.3
2017-Mar-20 13:32S 04°57' E 011°24'8 8.0
2017-Mar-20 12:33S 04°54' E 011°31'9 8.1
2017-Mar-20 11:22S 04°49' E 011°40'6 7.9
2017-Mar-20 10:34S 04°46' E 011°45'  
Track history (hours):
 
Tides and Currents Weather Stations Pressure Air Temp Water Temp Dewpoint Dewpoint Depression Visibility Wind Speed Wind Dir Waves Ship Positions

Montauk

Last reported at 2017-Mar-29 06:33 UTC. Time now 2017-Mar-30 09:00 UTC.
Position S 04°57' E 011°14'.

Length 106 m; draft 6 m.

Type: Tanker. MMSI: 215978000.

Date/timePositionNaut miles runAvg speedWind from/ knotsBaromVisibWave heightAir tempDewpointWater temp
2017-Mar-29 06:33S 04°57' E 011°14'9 8.6
2017-Mar-29 05:32S 04°57' E 011°22'  
2017-Mar-26 03:32S 04°54' E 011°35'7 7.1
2017-Mar-26 02:33S 04°56' E 011°28'7 6.9
2017-Mar-26 01:33S 04°58' E 011°21'22 0.5
2017-Mar-24 04:33S 04°42' E 011°36'8 8.2
2017-Mar-24 03:33S 04°45' E 011°44'5 2.2
2017-Mar-24 01:31S 04°45' E 011°49'0 0.0
2017-Mar-23 21:31S 04°45' E 011°49'0 0.1
2017-Mar-23 20:22S 04°45' E 011°49'0 0.0
2017-Mar-23 19:31S 04°45' E 011°49'0 0.0
2017-Mar-23 18:28S 04°45' E 011°49'0 0.0
2017-Mar-23 17:31S 04°45' E 011°49'0 0.0
2017-Mar-23 16:25S 04°45' E 011°49'0 0.0
2017-Mar-23 14:25S 04°45' E 011°49'0 0.2
2017-Mar-23 13:33S 04°45' E 011°49'25 1.8
2017-Mar-22 23:29S 04°56' E 011°26'7 7.4
2017-Mar-22 22:33S 04°57' E 011°19'26 1.1
2017-Mar-21 23:34S 04°57' E 010°53'5 0.5
2017-Mar-21 13:26S 04°53' E 010°55'17 0.8
2017-Mar-20 15:04S 04°57' E 011°11'4 8.4
2017-Mar-20 14:33S 04°57' E 011°15'8 8.3
2017-Mar-20 13:32S 04°57' E 011°24'8 8.0
2017-Mar-20 12:33S 04°54' E 011°31'9 8.1
2017-Mar-20 11:22S 04°49' E 011°40'6 7.9
2017-Mar-20 10:34S 04°46' E 011°45'  

Dump ship's entire track history